Latest Weather Observations for Cummins Airport

IDS60801

Issued at 10:01 am CST Tuesday 26 July 2016 (issued every 30 minutes, with the page automatically refreshed every 10 minutes)

About weather observations | Map of weather stations | Latest weather observations for SA | Other Formats
Station Details ID: 018217 Name: CUMMINS AERO Lat: -34.25 Lon: 135.71 Height: 60.11 m
Data from the previous 72 hours. | See also: Recent months at Cummins Airport
Date/Time
CST
Temp
°C
App
Temp
°C
Dew
Point
°C
Rel
Hum
%
Delta-T
°C
Wind Press
QNH
hPa
Press
MSL
hPa
Rain since
9am
mm
Dir  Spd
km/h
Gust
km/h
Spd
kts
Gust
kts
26/10:00am 10.7 6.9 9.0 89 0.8 NNW 19 24 10 13 1015.0 1015.0 0.0
26/09:30am 9.2 4.9 8.0 92 0.6 NNW 20 28 11 15 1015.3 1015.3 0.0
26/09:00am 9.0 5.6 7.8 92 0.6 N 15 20 8 11 1015.4 1015.4 0.8
26/08:30am 8.0 5.0 7.9 99 0.0 N 13 15 7 8 1015.8 1015.8 0.8
26/08:00am 7.6 4.9 7.5 99 0.0 NNW 11 15 6 8 1015.9 1015.9 0.8
26/07:30am 7.1 3.6 7.0 99 0.0 N 15 19 8 10 1015.5 1015.5 0.8
26/07:00am 7.0 3.4 6.9 99 0.0 N 15 19 8 10 1015.6 1015.6 0.8
26/06:30am 6.5 3.2 6.5 100 0.0 N 13 15 7 8 1015.9 1015.9 0.8
26/06:00am 5.3 2.1 5.3 100 0.0 NNW 11 13 6 7 1016.3 1016.4 0.8
26/05:30am 2.5 -0.4 2.5 100 0.0 N 7 9 4 5 1016.4 1016.5 0.8
26/05:00am 2.2 -0.6 2.2 100 0.0 NE 6 9 3 5 1016.5 1016.6 0.8
26/04:30am 2.5 0.5 2.5 100 0.0 ESE 2 7 1 4 1016.8 1016.9 0.8
26/04:00am 2.6 -0.1 2.5 99 0.0 N 6 6 3 3 1017.0 1017.1 0.8
26/03:30am 3.4 0.8 3.4 100 0.0 NW 6 7 3 4 1017.3 1017.4 0.8
26/03:00am 3.6 1.1 3.5 99 0.0 NNE 6 7 3 4 1017.6 1017.7 0.8
26/02:30am 4.7 2.6 4.1 96 0.3 NNW 4 9 2 5 1017.8 1017.9 0.8
26/02:00am 7.0 3.5 5.6 91 0.6 WNW 13 15 7 8 1018.0 1018.1 0.8
26/01:30am 4.5 1.6 4.4 99 0.0 NNW 9 15 5 8 1018.6 1018.7 0.8
26/01:00am 4.8 2.2 4.1 95 0.3 WNW 7 11 4 6 1018.6 1018.7 0.8
26/12:30am 4.5 1.8 3.6 94 0.4 NW 7 9 4 5 1018.6 1018.7 0.8
26/12:00am 5.6 2.7 4.7 94 0.4 WNW 9 9 5 5 1018.7 1018.8 0.8
 
Date/Time
CST
Temp
°C
App
Temp
°C
Dew
Point
°C
Rel
Hum
%
Delta-T
°C
Wind Press
QNH
hPa
Press
MSL
hPa
Rain since
9am
mm
Dir  Spd
km/h
Gust
km/h
Spd
kts
Gust
kts
25/11:30pm 6.3 4.4 4.8 90 0.7 W 4 9 2 5 1018.9 1019.0 0.8
25/11:00pm 6.7 4.2 5.0 89 0.7 W 7 9 4 5 1018.9 1019.0 0.8
25/10:30pm 7.5 4.4 5.5 87 0.9 WSW 11 13 6 7 1019.0 1019.1 0.8
25/10:00pm 7.1 3.9 5.1 87 0.9 WSW 11 13 6 7 1018.8 1018.9 0.8
25/09:30pm 7.5 3.9 5.1 85 1.1 WSW 13 13 7 7 1018.7 1018.8 0.8
25/09:00pm 8.8 4.8 4.8 76 1.8 WSW 15 20 8 11 1018.5 1018.6 0.8
25/08:30pm 9.0 5.3 6.1 82 1.3 WSW 15 20 8 11 1018.5 1018.6 0.8
25/08:00pm 9.0 4.8 5.9 81 1.4 W 17 20 9 11 1018.3 1018.4 0.8
25/07:30pm 10.3 5.7 6.6 78 1.7 WSW 20 26 11 14 1017.8 1017.9 0.8
25/07:00pm 10.6 4.4 6.0 73 2.1 WSW 28 39 15 21 1017.6 1017.7 0.8
25/06:30pm 10.6 7.2 9.2 91 0.7 WSW 17 24 9 13 1017.1 1017.2 0.8
25/06:00pm 10.4 7.0 9.2 92 0.6 W 17 20 9 11 1016.8 1016.9 0.8
25/05:30pm 10.8 6.5 9.2 90 0.8 WSW 22 33 12 18 1016.5 1016.6 0.8
25/05:00pm 11.1 6.6 10.0 93 0.6 WSW 24 32 13 17 1015.9 1015.9 0.8
25/04:30pm 11.4 6.3 10.5 94 0.5 WSW 28 43 15 23 1015.6 1015.6 0.8
25/04:00pm 12.3 6.8 10.4 88 1.0 WSW 30 43 16 23 1015.2 1015.2 0.8
25/03:30pm 12.0 7.3 12.0 100 0.0 WSW 28 43 15 23 1015.0 1015.0 0.8
25/03:00pm 12.6 5.6 11.3 92 0.7 W 39 61 21 33 1014.9 1014.9 0.6
25/02:30pm 15.2 6.0 11.0 76 2.2 W 50 70 27 38 1014.0 1014.0 0.6
25/02:00pm 14.6 6.3 11.4 81 1.7 WNW 46 67 25 36 1014.0 1014.0 0.6
25/01:31pm 14.9 7.3 11.7 81 1.7 WNW 43 61 23 33 1014.1 1014.1 0.6
25/01:30pm 14.8 6.9 11.6 81 1.7 WNW 44 61 24 33 1014.1 1014.1 0.6
25/01:08pm 15.2 8.2 11.4 78 2.0 WNW 39 57 21 31 1014.3 1014.3 0.6
25/01:00pm 15.2 8.7 11.8 80 1.8 WNW 37 52 20 28 1014.4 1014.4 0.6
25/12:30pm 14.5 7.3 11.8 84 1.5 WNW 41 63 22 34 1015.0 1015.0 0.6
25/12:02pm 14.7 8.3 12.0 84 1.5 WNW 37 56 20 30 1015.4 1015.4 0.6
25/12:00pm 14.6 8.4 12.5 87 1.1 WNW 37 52 20 28 1015.6 1015.6 0.6
25/11:33am 13.4 6.2 12.0 91 0.8 WNW 41 63 22 34 1015.7 1015.7 0.6
25/11:30am 13.4 6.6 12.0 91 0.8 WNW 39 56 21 30 1015.7 1015.7 0.6
25/11:11am 13.9 8.3 11.4 85 1.3 NW 32 50 17 27 1015.6 1015.6 0.6
25/11:00am 13.9 8.1 11.4 85 1.3 NW 33 46 18 25 1015.7 1015.7 0.6
25/10:30am 13.2 7.6 12.1 93 0.6 NW 33 46 18 25 1015.9 1015.9 0.6
25/10:00am 11.6 6.0 11.6 100 0.0 WNW 32 44 17 24 1016.3 1016.4 0.6
25/09:30am 11.4 6.1 11.4 100 0.0 WNW 30 43 16 23 1016.0 1016.0 0.0
25/09:00am 11.1 6.9 11.1 100 0.0 WNW 24 35 13 19 1016.0 1016.0 2.2
25/08:30am 10.9 7.3 10.6 98 0.2 WNW 20 35 11 19 1016.2 1016.2 2.0
25/08:00am 10.3 7.2 10.3 100 0.0 NW 17 33 9 18 1016.1 1016.1 2.0
25/07:30am 9.5 6.3 8.4 93 0.5 NW 15 24 8 13 1016.1 1016.1 2.0
25/07:00am 8.7 5.5 8.4 98 0.1 NW 15 19 8 10 1015.9 1015.9 2.0
25/06:30am 8.7 5.2 8.7 100 0.0 WNW 17 24 9 13 1016.0 1016.0 2.0
25/06:00am 7.4 4.3 7.4 100 0.0 NW 13 17 7 9 1016.1 1016.1 1.8
25/05:30am 5.9 2.9 5.9 100 0.0 NNW 11 13 6 7 1016.0 1016.0 1.8
25/05:00am 5.9 2.9 5.9 100 0.0 N 11 15 6 8 1016.0 1016.0 1.8
25/04:30am 5.7 2.3 5.7 100 0.0 NNW 13 15 7 8 1016.3 1016.4 1.8
25/04:00am 5.2 2.4 5.2 100 0.0 N 9 11 5 6 1016.6 1016.7 1.8
25/03:30am 3.9 1.4 3.9 100 0.0 N 6 9 3 5 1016.8 1016.9 1.8
25/03:00am 3.5 0.8 3.5 100 0.0 N 7 11 4 6 1016.7 1016.8 1.8
25/02:30am 3.9 1.2 3.8 99 0.0 N 7 9 4 5 1017.0 1017.1 1.8
25/02:00am 4.8 2.3 4.7 99 0.0 NW 7 9 4 5 1017.0 1017.1 1.8
25/01:30am 6.2 3.2 6.2 100 0.0 W 11 13 6 7 1017.0 1017.1 1.8
25/01:00am 6.1 3.1 6.1 100 0.0 W 11 13 6 7 1017.1 1017.2 1.8
25/12:30am 5.9 2.5 5.8 99 0.0 W 13 15 7 8 1017.3 1017.4 1.8
25/12:00am 6.6 3.2 5.9 95 0.3 W 13 15 7 8 1017.5 1017.6 1.8
 
Date/Time
CST
Temp
°C
App
Temp
°C
Dew
Point
°C
Rel
Hum
%
Delta-T
°C
Wind Press
QNH
hPa
Press
MSL
hPa
Rain since
9am
mm
Dir  Spd
km/h
Gust
km/h
Spd
kts
Gust
kts
24/11:30pm 7.2 3.2 6.5 95 0.3 W 17 17 9 9 1017.4 1017.5 1.8
24/11:00pm 8.4 4.0 7.3 93 0.5 WSW 20 28 11 15 1017.3 1017.4 1.8
24/10:30pm 8.9 4.2 7.7 92 0.6 WSW 22 39 12 21 1017.2 1017.3 1.8
24/10:00pm 7.6 4.5 7.2 97 0.2 WSW 13 15 7 8 1017.0 1017.1 1.6
24/09:30pm 8.2 4.3 7.0 92 0.6 WSW 17 22 9 12 1016.7 1016.8 1.6
24/09:00pm 9.3 3.6 6.7 84 1.2 WSW 26 37 14 20 1016.4 1016.5 1.6
24/08:30pm 9.2 4.5 7.6 90 0.8 WSW 22 30 12 16 1016.1 1016.1 1.6
24/08:00pm 9.6 3.7 7.4 86 1.0 WSW 28 37 15 20 1015.6 1015.6 1.6
24/07:30pm 8.9 2.9 7.0 88 0.9 W 28 33 15 18 1015.3 1015.3 1.6
24/07:00pm 9.0 3.7 8.4 96 0.3 W 26 37 14 20 1014.8 1014.8 1.6
24/06:44pm 10.0 3.1 7.1 82 1.4 W 33 52 18 28 1014.6 1014.6 1.4
24/06:30pm 9.4 3.2 6.1 80 1.5 W 28 33 15 18 1014.1 1014.1 1.4
24/06:00pm 9.5 2.6 7.1 85 1.1 W 33 46 18 25 1013.6 1013.6 1.4
24/05:44pm 10.1 3.9 7.7 85 1.2 W 30 61 16 33 1013.6 1013.6 1.4
24/05:30pm 10.2 4.0 7.8 85 1.2 W 30 46 16 25 1013.3 1013.3 1.4
24/05:10pm 10.5 3.9 7.6 82 1.4 W 32 56 17 30 1013.3 1013.3 1.2
24/05:00pm 10.6 5.3 8.5 87 1.0 W 26 33 14 18 1013.2 1013.2 1.2
24/04:30pm 10.1 2.2 8.0 87 1.0 W 39 69 21 37 1013.1 1013.1 1.2
24/04:07pm 10.7 3.9 7.9 83 1.4 WSW 33 52 18 28 1012.6 1012.6 1.0
24/04:00pm 11.0 3.1 7.7 80 1.6 WSW 39 54 21 29 1012.5 1012.5 1.0
24/03:31pm 10.9 2.9 7.6 80 1.6 WSW 39 57 21 31 1012.3 1012.3 1.0
24/03:30pm 11.1 3.2 8.0 81 1.5 WSW 39 52 21 28 1012.3 1012.3 1.0
24/03:01pm 12.2 2.7 6.5 68 2.7 W 46 65 25 35 1011.7 1011.7 0.6
24/03:00pm 12.3 2.4 6.6 68 2.7 W 48 65 26 35 1011.7 1011.7 0.6
24/02:52pm 12.5 2.9 6.1 65 3.0 W 46 65 25 35 1011.7 1011.7 0.6
24/02:30pm 12.1 3.2 7.0 71 2.5 W 43 57 23 31 1011.6 1011.6 0.6
24/02:24pm 11.7 1.9 7.2 74 2.2 WSW 48 67 26 36 1011.6 1011.6 0.6
24/02:18pm 11.3 2.0 7.4 77 1.9 W 46 67 25 36 1011.5 1011.5 0.6
24/02:00pm 12.7 6.1 7.8 72 2.4 W 32 50 17 27 1011.4 1011.4 0.6
24/01:30pm 8.9 -0.2 6.7 86 1.0 W 44 74 24 40 1011.6 1011.6 0.6
24/01:00pm 11.5 2.4 6.0 69 2.6 W 43 61 23 33 1011.5 1011.5 0.0
24/12:30pm 11.7 2.7 6.4 70 2.5 W 43 61 23 33 1011.3 1011.3 0.0
24/12:28pm 11.9 3.2 5.8 66 2.9 W 41 61 22 33 1011.2 1011.2 0.0
24/12:00pm 11.0 1.9 6.6 74 2.1 W 44 59 24 32 1011.4 1011.4 0.0
24/11:30am 9.5 1.1 5.5 76 1.8 W 39 61 21 33 1011.3 1011.3 0.0
24/11:25am 11.0 2.8 6.7 75 2.0 W 39 61 21 33 1011.4 1011.4 0.0
24/11:00am 11.2 2.9 5.9 70 2.5 W 39 54 21 29 1011.2 1011.2 0.0
24/10:32am 10.8 2.4 5.6 70 2.4 W 39 57 21 31 1010.7 1010.8 0.0
24/10:30am 11.4 3.1 6.3 71 2.4 W 39 54 21 29 1010.6 1010.7 0.0
24/10:14am 11.3 3.8 6.2 71 2.4 W 35 54 19 29 1010.5 1010.6 0.0
24/10:00am 10.6 2.9 6.9 78 1.8 WSW 37 48 20 26 1010.4 1010.5 0.0
24/09:30am 10.4 2.0 5.4 71 2.3 W 39 50 21 27 1009.7 1009.8 0.0
24/09:04am 10.3 3.4 6.3 76 1.9 W 32 52 17 28 1009.3 1009.4 0.0
24/09:00am 10.4 4.4 6.9 79 1.7 W 28 39 15 21 1009.2 1009.3 12.0
24/08:30am 9.2 3.2 7.2 87 0.9 W 28 41 15 22 1008.9 1009.0 12.0
24/08:00am 8.9 4.4 8.6 98 0.1 W 22 35 12 19 1008.6 1008.7 12.0
24/07:30am 8.5 3.6 8.5 100 0.0 WNW 24 33 13 18 1008.6 1008.7 11.8
24/07:17am 8.4 2.7 8.4 100 0.0 W 28 50 15 27 1008.5 1008.6 11.4
24/07:16am 8.3 3.0 8.3 100 0.0 W 26 44 14 24 1008.7 1008.8 11.4
24/07:00am 8.3 5.1 8.3 100 0.0 WNW 15 19 8 10 1007.9 1008.0 8.8
24/06:30am 7.9 2.9 7.9 100 0.0 WNW 24 35 13 19 1008.4 1008.5 7.2
24/06:10am 8.7 2.3 8.7 100 0.0 NNW 32 67 17 36 1007.9 1008.0 4.4
24/06:00am 8.8 2.8 8.8 100 0.0 NNW 30 44 16 24 1007.3 1007.4 3.0
24/05:40am 8.7 3.1 8.7 100 0.0 NNW 28 46 15 25 1007.4 1007.5 3.0
24/05:30am 8.9 3.7 8.9 100 0.0 NNW 26 41 14 22 1007.6 1007.7 2.2
24/05:00am 8.9 3.0 8.9 100 0.0 NNW 30 41 16 22 1007.7 1007.8 2.0
24/04:30am 9.0 3.1 9.0 100 0.0 NNW 30 43 16 23 1008.3 1008.4 1.8
24/04:00am 8.7 3.1 8.7 100 0.0 NNW 28 37 15 20 1008.4 1008.5 1.6
24/03:30am 8.8 3.2 8.8 100 0.0 NNW 28 37 15 20 1008.9 1009.0 1.6
24/03:00am 8.7 3.5 8.7 100 0.0 N 26 35 14 19 1009.4 1009.5 1.6
24/02:30am 8.6 3.3 8.6 100 0.0 N 26 35 14 19 1010.0 1010.1 0.8
24/02:00am 8.3 3.4 8.3 100 0.0 N 24 35 13 19 1010.6 1010.7 0.6
24/01:30am 7.7 3.4 7.7 100 0.0 N 20 26 11 14 1011.0 1011.0 0.4
24/01:00am 7.2 2.8 7.2 100 0.0 N 20 26 11 14 1011.3 1011.3 0.4
24/12:30am 6.8 2.8 6.7 99 0.0 N 17 22 9 12 1012.0 1012.0 0.4
24/12:00am 7.0 2.7 7.0 100 0.0 N 19 22 10 12 1012.6 1012.6 0.4
 
Date/Time
CST
Temp
°C
App
Temp
°C
Dew
Point
°C
Rel
Hum
%
Delta-T
°C
Wind Press
QNH
hPa
Press
MSL
hPa
Rain since
9am
mm
Dir  Spd
km/h
Gust
km/h
Spd
kts
Gust
kts
23/11:30pm 6.4 3.1 6.4 100 0.0 N 13 20 7 11 1013.4 1013.4 0.4
23/11:00pm 5.5 2.4 5.5 100 0.0 NNE 11 15 6 8 1013.9 1013.9 0.4
23/10:30pm 6.1 2.7 6.1 100 0.0 NNE 13 15 7 8 1014.2 1014.2 0.4
23/10:00pm 6.0 3.0 6.0 100 0.0 NNE 11 13 6 7 1014.3 1014.3 0.4
23/09:30pm 7.3 5.0 7.3 100 0.0 NNE 9 11 5 6 1014.6 1014.6 0.4
23/09:00pm 7.5 5.2 7.5 100 0.0 N 9 11 5 6 1015.0 1015.0 0.2
23/08:30pm 7.5 5.6 7.5 100 0.0 N 7 9 4 5 1015.0 1015.0 0.2
23/08:00pm 7.0 4.6 6.9 99 0.0 NNW 9 11 5 6 1015.5 1015.5 0.2
23/07:30pm 7.7 5.2 6.6 93 0.5 NNW 9 11 5 6 1015.3 1015.3 0.2
23/07:00pm 9.0 5.9 7.1 88 0.9 NNW 13 17 7 9 1015.5 1015.5 0.2
23/06:30pm 9.0 5.7 6.6 85 1.1 NW 13 15 7 8 1015.5 1015.5 0.2
23/06:00pm 9.8 7.0 7.1 83 1.3 NW 11 13 6 7 1015.3 1015.3 0.2
23/05:30pm 10.3 8.4 7.5 83 1.3 WNW 7 13 4 7 1015.4 1015.4 0.2
23/05:00pm 10.6 7.7 6.7 77 1.8 WSW 11 15 6 8 1015.2 1015.2 0.2
23/04:30pm 12.0 9.0 7.5 74 2.2 WSW 13 17 7 9 1015.4 1015.4 0.2
23/04:00pm 12.3 8.2 6.4 67 2.8 WSW 17 22 9 12 1015.3 1015.3 0.2
23/03:30pm 12.7 8.1 5.6 62 3.3 WSW 19 24 10 13 1015.4 1015.4 0.2
23/03:00pm 12.6 7.7 5.3 61 3.4 W 20 26 11 14 1015.5 1015.5 0.2
23/02:30pm 12.9 8.4 7.1 68 2.8 W 20 26 11 14 1015.4 1015.4 0.2
23/02:00pm 12.8 8.4 6.4 65 3.1 W 19 24 10 13 1015.4 1015.4 0.2
23/01:30pm 12.6 8.3 6.9 68 2.7 WSW 19 28 10 15 1015.6 1015.6 0.2
23/01:10pm 11.5 5.4 6.6 72 2.3 WSW 28 41 15 22 1015.9 1015.9 0.2
23/01:00pm 13.3 9.4 7.3 67 2.9 WSW 17 20 9 11 1015.9 1015.9 0.0
23/12:30pm 12.8 8.6 7.5 70 2.6 SW 19 24 10 13 1016.1 1016.1 0.0
23/12:00pm 12.3 7.4 7.0 70 2.5 WSW 22 30 12 16 1016.6 1016.7 0.0
23/11:30am 12.3 6.7 7.0 70 2.5 W 26 33 14 18 1016.8 1016.9 0.0
23/11:00am 11.8 6.0 7.9 77 1.9 W 28 35 15 19 1016.8 1016.9 0.0
23/10:30am 11.5 8.2 8.0 79 1.7 W 15 20 8 11 1016.7 1016.8 0.0

Other Formats:

Comma delimited format used in spreadsheet applications
http://www.bom.gov.au/fwo/IDS60801/IDS60801.95663.axf

JavaScript Object Notation format (JSON) in row-major order
http://www.bom.gov.au/fwo/IDS60801/IDS60801.95663.json